createdAt,value
2019-02-17T00:02:03.516Z,15.83
2019-02-17T00:04:30.063Z,12.00
2019-02-17T00:06:56.671Z,20.63
2019-02-17T00:09:23.176Z,19.67
2019-02-17T00:11:49.688Z,13.30
2019-02-17T00:14:16.312Z,15.70
2019-02-17T00:16:43.101Z,16.90
2019-02-17T00:19:09.876Z,28.47
2019-02-17T00:21:37.398Z,18.57
2019-02-17T00:24:03.830Z,23.40
2019-02-17T00:26:30.347Z,14.73
2019-02-17T00:28:59.433Z,18.97
2019-02-17T00:31:25.722Z,16.60
2019-02-17T00:33:53.365Z,17.47
2019-02-17T00:36:19.928Z,17.53
2019-02-17T00:38:46.698Z,18.07
2019-02-17T00:41:13.477Z,15.93
2019-02-17T00:43:39.883Z,21.27
2019-02-17T00:46:06.456Z,16.00
2019-02-17T00:48:32.967Z,14.00
2019-02-17T00:50:59.623Z,20.40
2019-02-17T00:53:26.250Z,19.93
2019-02-17T00:55:52.782Z,24.23
2019-02-17T00:58:19.470Z,22.23
2019-02-17T01:00:46.152Z,19.87
2019-02-17T01:03:12.573Z,20.53
2019-02-17T01:05:39.099Z,25.53
2019-02-17T01:08:05.713Z,19.23
2019-02-17T01:10:32.318Z,14.20
2019-02-17T01:12:59.103Z,19.23
2019-02-17T01:15:25.544Z,18.53
2019-02-17T01:17:52.355Z,21.23
2019-02-17T01:20:18.902Z,21.87
2019-02-17T01:22:46.653Z,26.37
2019-02-17T01:25:13.197Z,16.43
2019-02-17T01:27:39.702Z,19.10
2019-02-17T01:30:12.932Z,19.37
2019-02-17T01:32:39.745Z,17.03
2019-02-17T01:35:06.459Z,17.00
2019-02-17T01:37:33.226Z,21.63
2019-02-17T01:39:59.996Z,16.43
2019-02-17T01:42:26.486Z,17.33
2019-02-17T01:44:53.315Z,11.47
2019-02-17T01:47:19.843Z,15.13
2019-02-17T01:49:46.634Z,22.83
2019-02-17T01:52:13.055Z,20.80
2019-02-17T01:54:39.559Z,17.00
2019-02-17T01:57:06.275Z,16.90
2019-02-17T01:59:32.786Z,17.20
2019-02-17T02:01:59.477Z,15.40
2019-02-17T02:04:25.976Z,13.63
2019-02-17T02:06:52.426Z,13.50
2019-02-17T02:09:19.244Z,17.33
2019-02-17T02:11:45.886Z,25.20
2019-02-17T02:14:12.391Z,18.07
2019-02-17T02:16:39.203Z,17.23
2019-02-17T02:19:05.698Z,15.57
2019-02-17T02:21:32.153Z,15.23
2019-02-17T02:23:58.825Z,14.20
2019-02-17T02:26:25.361Z,13.80
2019-02-17T02:28:51.920Z,11.83
2019-02-17T02:31:18.463Z,14.40
2019-02-17T02:33:45.363Z,12.53
2019-02-17T02:36:12.012Z,12.43
2019-02-17T02:38:38.652Z,14.53
2019-02-17T02:41:05.447Z,13.25
2019-02-17T02:43:31.951Z,15.53
2019-02-17T02:45:59.670Z,14.43
2019-02-17T02:48:26.196Z,12.43
2019-02-17T02:50:53.343Z,12.97
2019-02-17T02:53:19.990Z,15.93
2019-02-17T02:55:46.602Z,13.07
2019-02-17T02:58:13.413Z,15.77
2019-02-17T03:00:40.165Z,34.00
2019-02-17T03:03:06.700Z,16.80
2019-02-17T03:05:36.118Z,14.38
2019-02-17T03:08:02.902Z,16.30
2019-02-17T03:10:29.563Z,19.62
2019-02-17T03:12:56.105Z,12.75
2019-02-17T03:15:22.638Z,19.52
2019-02-17T03:17:49.176Z,23.63
2019-02-17T03:20:15.608Z,26.53
2019-02-17T03:22:42.161Z,25.07
2019-02-17T03:25:08.709Z,25.27
2019-02-17T03:27:35.654Z,24.43
2019-02-17T03:30:05.502Z,21.97
2019-02-17T03:32:31.765Z,18.20
2019-02-17T03:34:58.272Z,19.50
2019-02-17T03:37:24.705Z,26.47
2019-02-17T03:39:51.407Z,23.27
2019-02-17T03:42:17.956Z,29.47
2019-02-17T03:44:44.441Z,32.97
2019-02-17T03:47:11.194Z,34.93
2019-02-17T03:49:38.217Z,30.12
2019-02-17T03:52:04.728Z,27.63
2019-02-17T03:54:31.233Z,32.60
2019-02-17T03:56:57.927Z,27.25
2019-02-17T03:59:24.460Z,24.77
2019-02-17T04:01:51.124Z,20.47
2019-02-17T04:04:18.668Z,16.32
2019-02-17T04:06:45.437Z,23.33
2019-02-17T04:09:12.257Z,17.33
2019-02-17T04:11:38.813Z,17.15
2019-02-17T04:14:05.323Z,17.10
2019-02-17T04:16:31.961Z,23.03
2019-02-17T04:18:58.513Z,16.83
2019-02-17T04:21:26.261Z,15.40
2019-02-17T04:23:52.723Z,20.72
2019-02-17T04:26:19.242Z,12.47
2019-02-17T04:28:45.788Z,15.20
2019-02-17T04:31:12.565Z,12.97
2019-02-17T04:33:39.416Z,11.70
2019-02-17T04:36:06.371Z,12.23
2019-02-17T04:38:32.912Z,14.20
2019-02-17T04:40:59.427Z,12.10
2019-02-17T04:43:25.852Z,9.88
2019-02-17T04:45:52.653Z,9.80
2019-02-17T04:48:19.191Z,12.53
2019-02-17T04:50:45.967Z,10.73
2019-02-17T04:53:12.388Z,12.57
2019-02-17T04:55:38.830Z,13.20
2019-02-17T04:58:06.381Z,16.57
2019-02-17T05:00:40.168Z,12.83
2019-02-17T05:03:01.396Z,13.87
2019-02-17T05:05:28.033Z,12.47
2019-02-17T05:07:54.608Z,13.65
2019-02-17T05:10:21.160Z,16.95
2019-02-17T05:12:47.629Z,20.27
2019-02-17T05:15:14.161Z,13.00
2019-02-17T05:17:41.712Z,13.30
2019-02-17T05:20:08.458Z,13.40
2019-02-17T05:22:35.005Z,12.83
2019-02-17T05:25:01.528Z,11.03
2019-02-17T05:30:25.152Z,22.55
2019-02-17T05:32:51.885Z,16.90
2019-02-17T05:35:18.408Z,17.17
2019-02-17T05:37:45.056Z,18.65
2019-02-17T05:40:11.629Z,13.78
2019-02-17T05:42:38.151Z,17.93
2019-02-17T05:45:05.602Z,15.05
2019-02-17T05:47:32.383Z,14.98
2019-02-17T05:49:58.949Z,14.30
2019-02-17T05:52:25.453Z,24.13
2019-02-17T05:54:52.137Z,26.13
2019-02-17T05:57:18.924Z,30.00
2019-02-17T05:59:45.517Z,23.32
2019-02-17T06:02:12.019Z,27.90
2019-02-17T06:04:38.581Z,32.35
2019-02-17T06:07:05.390Z,24.20
2019-02-17T06:09:31.943Z,25.02
2019-02-17T06:11:58.598Z,35.40
2019-02-17T06:14:25.153Z,35.08
2019-02-17T06:16:51.676Z,35.98
2019-02-17T06:19:18.215Z,27.02
2019-02-17T06:21:44.853Z,31.17
2019-02-17T06:24:11.285Z,30.87
2019-02-17T06:26:37.830Z,21.57
2019-02-17T06:29:04.482Z,25.40
2019-02-17T06:31:30.988Z,17.13
2019-02-17T06:33:57.801Z,17.52
2019-02-17T06:36:25.436Z,17.32
2019-02-17T06:38:51.949Z,20.20
2019-02-17T06:41:18.375Z,19.05
2019-02-17T06:43:46.158Z,17.35
2019-02-17T06:46:14.901Z,17.00
2019-02-17T06:48:41.728Z,24.27
2019-02-17T06:51:08.529Z,20.95
2019-02-17T06:53:35.429Z,17.17
2019-02-17T06:56:04.157Z,33.05
2019-02-17T06:58:30.702Z,37.03
2019-02-17T07:00:57.316Z,43.03
2019-02-17T07:03:24.017Z,31.57
2019-02-17T07:05:56.758Z,26.13
2019-02-17T07:08:23.386Z,23.57
2019-02-17T07:10:49.957Z,22.17
2019-02-17T07:13:17.482Z,20.87
2019-02-17T07:15:44.063Z,25.02
2019-02-17T07:18:10.885Z,19.17
2019-02-17T07:20:37.736Z,20.17
2019-02-17T07:23:05.272Z,16.87
2019-02-17T07:25:33.106Z,15.60
2019-02-17T07:27:59.756Z,36.60
2019-02-17T07:30:26.561Z,32.90
2019-02-17T07:32:53.079Z,30.67
2019-02-17T07:35:19.555Z,34.17
2019-02-17T07:37:46.316Z,47.70
2019-02-17T07:40:12.839Z,31.67
2019-02-17T07:42:39.642Z,28.27
2019-02-17T07:45:08.275Z,38.83
2019-02-17T07:47:34.831Z,40.87
2019-02-17T07:50:01.644Z,47.47
2019-02-17T07:52:28.159Z,43.27
2019-02-17T07:54:54.698Z,34.37
2019-02-17T07:57:21.328Z,29.73
2019-02-17T07:59:48.209Z,29.23
2019-02-17T08:02:14.751Z,31.17
2019-02-17T08:04:41.293Z,34.77
2019-02-17T08:07:07.728Z,42.13
2019-02-17T08:09:34.503Z,45.07
2019-02-17T08:12:01.143Z,47.63
2019-02-17T08:14:27.668Z,53.50
2019-02-17T08:16:54.363Z,37.20
2019-02-17T08:19:21.083Z,38.07
2019-02-17T08:21:47.633Z,35.30
2019-02-17T08:24:14.151Z,30.30
2019-02-17T08:26:40.663Z,30.20
2019-02-17T08:29:07.284Z,27.30
2019-02-17T08:31:34.109Z,24.27
2019-02-17T08:34:00.526Z,23.37
2019-02-17T08:36:27.320Z,23.17
2019-02-17T08:38:54.112Z,23.40
2019-02-17T08:41:20.548Z,25.63
2019-02-17T08:43:47.327Z,20.07
2019-02-17T08:46:13.859Z,20.90
2019-02-17T08:48:40.641Z,21.27
2019-02-17T08:51:07.220Z,19.43
2019-02-17T08:53:33.911Z,19.30
2019-02-17T08:56:00.541Z,21.03
2019-02-17T08:58:27.354Z,20.87
2019-02-17T09:00:58.833Z,20.97
2019-02-17T09:03:25.270Z,22.37
2019-02-17T09:05:52.077Z,19.70
2019-02-17T09:08:18.842Z,20.57
2019-02-17T09:10:45.421Z,21.07
2019-02-17T09:13:12.071Z,20.40
2019-02-17T09:15:38.752Z,18.90
2019-02-17T09:18:05.459Z,22.40
2019-02-17T09:20:32.264Z,18.47
2019-02-17T09:22:58.815Z,22.70
2019-02-17T09:25:25.349Z,20.53
2019-02-17T09:27:51.796Z,20.27
2019-02-17T09:30:18.390Z,20.73
2019-02-17T09:32:45.200Z,21.40
2019-02-17T09:35:12.024Z,20.93
2019-02-17T09:37:39.537Z,19.37
2019-02-17T09:40:08.711Z,20.53
2019-02-17T09:42:36.336Z,22.03
2019-02-17T09:45:06.255Z,21.17
2019-02-17T09:47:32.918Z,22.47
2019-02-17T09:49:59.588Z,19.40
2019-02-17T09:52:26.456Z,18.57
2019-02-17T09:54:53.182Z,16.37
2019-02-17T09:57:19.684Z,21.47
2019-02-17T09:59:46.261Z,23.30
2019-02-17T10:02:13.078Z,16.47
2019-02-17T10:04:39.492Z,20.67
2019-02-17T10:07:06.134Z,18.87
2019-02-17T10:09:32.659Z,17.53
2019-02-17T10:11:59.308Z,27.77
2019-02-17T10:14:25.842Z,21.27
2019-02-17T10:16:52.760Z,20.07
2019-02-17T10:19:19.198Z,19.93
2019-02-17T10:21:45.719Z,17.37
2019-02-17T10:24:12.536Z,18.47
2019-02-17T10:26:39.465Z,17.07
2019-02-17T10:29:06.973Z,19.67
2019-02-17T10:31:33.497Z,18.60
2019-02-17T10:34:01.191Z,17.53
2019-02-17T10:36:28.112Z,17.13
2019-02-17T10:38:54.901Z,15.93
2019-02-17T10:41:21.481Z,17.50
2019-02-17T10:43:48.045Z,15.70
2019-02-17T10:46:14.775Z,16.43
2019-02-17T10:48:41.681Z,15.07
2019-02-17T10:51:08.204Z,15.60
2019-02-17T10:53:35.055Z,16.17
2019-02-17T10:56:01.583Z,13.97
2019-02-17T10:58:28.276Z,13.27
2019-02-17T11:00:54.716Z,11.90
2019-02-17T11:03:21.320Z,14.50
2019-02-17T11:05:48.016Z,12.17
2019-02-17T11:08:14.454Z,11.67
2019-02-17T11:10:41.081Z,10.37
2019-02-17T11:13:07.674Z,11.97
2019-02-17T11:15:34.468Z,12.57
2019-02-17T11:18:01.268Z,10.18
2019-02-17T11:20:27.824Z,11.00
2019-02-17T11:22:54.383Z,10.43
2019-02-17T11:25:21.205Z,13.43
2019-02-17T11:27:47.616Z,13.50
2019-02-17T11:30:16.981Z,13.03
2019-02-17T11:32:43.492Z,10.78
2019-02-17T11:35:10.175Z,11.25
2019-02-17T11:37:37.997Z,9.38
2019-02-17T11:40:07.632Z,9.33
2019-02-17T11:42:34.072Z,11.60
2019-02-17T11:45:00.980Z,10.75
2019-02-17T11:47:27.492Z,16.50
2019-02-17T11:49:54.423Z,14.13
2019-02-17T11:52:21.042Z,12.82
2019-02-17T11:54:47.770Z,11.38
2019-02-17T11:57:14.350Z,14.80
2019-02-17T11:59:40.908Z,12.00
2019-02-17T12:02:07.447Z,12.47
2019-02-17T12:04:34.991Z,13.70
2019-02-17T12:07:01.499Z,11.70
2019-02-17T12:09:28.040Z,10.98
2019-02-17T12:11:54.694Z,9.53
2019-02-17T12:14:25.079Z,9.90
2019-02-17T12:16:51.600Z,10.23
2019-02-17T12:19:18.045Z,13.10
2019-02-17T12:21:46.569Z,9.60
2019-02-17T12:24:18.027Z,10.03
2019-02-17T12:26:58.384Z,10.15
2019-02-17T12:29:32.943Z,10.20
2019-02-17T12:31:59.502Z,7.85
2019-02-17T12:34:26.056Z,7.83
2019-02-17T12:36:52.581Z,7.60
2019-02-17T12:39:19.056Z,16.93
2019-02-17T12:41:45.584Z,10.30
2019-02-17T12:44:12.481Z,9.35
2019-02-17T12:46:39.268Z,8.17
2019-02-17T12:49:05.767Z,6.87
2019-02-17T12:51:32.343Z,7.17
2019-02-17T12:53:58.854Z,8.27
2019-02-17T12:56:25.442Z,8.40
2019-02-17T12:58:52.175Z,7.07
2019-02-17T13:01:18.894Z,8.20
2019-02-17T13:03:45.402Z,6.67
2019-02-17T13:06:12.123Z,7.07
2019-02-17T13:08:38.628Z,7.93
2019-02-17T13:11:05.080Z,8.50
2019-02-17T13:13:31.596Z,7.00
2019-02-17T13:15:59.499Z,11.70
2019-02-17T13:18:25.918Z,5.87
2019-02-17T13:20:52.452Z,5.90
2019-02-17T13:23:18.854Z,4.57
2019-02-17T13:25:45.608Z,6.40
2019-02-17T13:28:12.117Z,7.20
2019-02-17T13:30:38.909Z,4.53
2019-02-17T13:33:05.612Z,5.77
2019-02-17T13:35:32.408Z,7.23
2019-02-17T13:37:58.946Z,4.10
2019-02-17T13:40:25.727Z,5.23
2019-02-17T13:42:52.135Z,2.73
2019-02-17T13:45:18.652Z,3.90
2019-02-17T13:47:45.055Z,3.57
2019-02-17T13:50:12.894Z,2.87
2019-02-17T13:52:39.757Z,4.37
2019-02-17T13:55:07.175Z,2.00
2019-02-17T13:57:33.881Z,2.90
2019-02-17T14:00:00.422Z,2.70
2019-02-17T14:02:26.944Z,4.23
2019-02-17T14:04:53.609Z,2.60
2019-02-17T14:07:20.156Z,2.77
2019-02-17T14:09:49.649Z,3.33
2019-02-17T14:12:16.360Z,3.70
2019-02-17T14:14:43.161Z,4.13
2019-02-17T14:17:09.916Z,3.10
2019-02-17T14:19:36.531Z,2.30
2019-02-17T14:22:03.156Z,2.83
2019-02-17T14:24:29.733Z,2.87
2019-02-17T14:26:56.409Z,2.93
2019-02-17T14:29:22.916Z,3.33
2019-02-17T14:31:49.801Z,1.90
2019-02-17T14:34:16.601Z,2.33
2019-02-17T14:36:43.129Z,2.00
2019-02-17T14:39:09.951Z,3.40
2019-02-17T14:41:36.525Z,3.17
2019-02-17T14:44:03.298Z,2.70
2019-02-17T14:46:29.850Z,2.77
2019-02-17T14:48:56.355Z,2.80
2019-02-17T14:51:23.136Z,2.70
2019-02-17T14:53:49.573Z,2.60
2019-02-17T14:56:16.324Z,2.43
2019-02-17T14:58:42.818Z,2.47
2019-02-17T15:01:10.399Z,2.40
2019-02-17T15:03:37.257Z,2.47
2019-02-17T15:06:04.855Z,1.93
2019-02-17T15:08:31.301Z,2.10
2019-02-17T15:10:57.711Z,1.90
2019-02-17T15:13:24.633Z,2.40
2019-02-17T15:15:51.376Z,2.00
2019-02-17T15:18:17.829Z,1.90
2019-02-17T15:20:44.487Z,2.27
2019-02-17T15:23:11.298Z,2.33
2019-02-17T15:25:38.011Z,1.47
2019-02-17T15:28:04.892Z,3.70
2019-02-17T15:30:31.750Z,3.67
2019-02-17T15:33:04.009Z,8.77
2019-02-17T15:35:28.191Z,4.83
2019-02-17T15:37:59.341Z,2.50
2019-02-17T15:40:29.589Z,5.87
2019-02-17T15:42:56.212Z,4.23
2019-02-17T15:45:22.798Z,4.40
2019-02-17T15:47:49.769Z,3.20
2019-02-17T15:50:16.558Z,3.27
2019-02-17T15:52:43.082Z,2.50
2019-02-17T15:55:13.779Z,6.20
2019-02-17T15:57:40.320Z,3.63
2019-02-17T16:00:17.192Z,3.20
2019-02-17T16:02:43.640Z,5.97
2019-02-17T16:05:10.643Z,8.80
2019-02-17T16:07:37.156Z,6.13
2019-02-17T16:10:06.903Z,4.37
2019-02-17T16:12:33.418Z,7.70
2019-02-17T16:15:00.241Z,3.13
2019-02-17T16:17:26.879Z,4.73
2019-02-17T16:19:53.388Z,7.03
2019-02-17T16:22:19.820Z,4.70
2019-02-17T16:24:46.455Z,5.13
2019-02-17T16:27:14.291Z,5.53
2019-02-17T16:29:40.829Z,7.53
2019-02-17T16:32:07.699Z,6.73
2019-02-17T16:34:38.406Z,8.47
2019-02-17T16:37:04.644Z,11.10
2019-02-17T16:39:31.214Z,14.13
2019-02-17T16:41:57.935Z,9.60
2019-02-17T16:44:24.450Z,10.93
2019-02-17T16:46:50.968Z,10.93
2019-02-17T16:49:17.803Z,13.13
2019-02-17T16:51:44.533Z,10.97
2019-02-17T16:54:11.305Z,11.73
2019-02-17T16:56:37.860Z,10.90
2019-02-17T16:59:04.732Z,12.70
2019-02-17T17:01:32.754Z,15.87
2019-02-17T17:03:59.538Z,15.00
2019-02-17T17:06:26.047Z,15.60
2019-02-17T17:08:52.483Z,17.23
2019-02-17T17:11:19.465Z,14.17
2019-02-17T17:13:46.029Z,14.20
2019-02-17T17:16:12.570Z,15.97
2019-02-17T17:18:39.099Z,14.53
2019-02-17T17:21:05.644Z,14.00
2019-02-17T17:23:32.191Z,12.70
2019-02-17T17:25:58.816Z,15.13
2019-02-17T17:28:25.932Z,14.77
2019-02-17T17:30:53.756Z,11.40
2019-02-17T17:33:20.188Z,13.63
2019-02-17T17:35:47.084Z,10.77
2019-02-17T17:38:13.766Z,11.53
2019-02-17T17:40:40.328Z,10.67
2019-02-17T17:43:06.833Z,15.27
2019-02-17T17:45:33.382Z,13.37
2019-02-17T17:48:01.035Z,10.47
2019-02-17T17:50:27.756Z,10.27
2019-02-17T17:52:54.556Z,13.93
2019-02-17T17:55:22.409Z,11.30
2019-02-17T17:57:48.900Z,12.80
2019-02-17T18:00:27.072Z,12.50
2019-02-17T18:02:53.489Z,11.03
2019-02-17T18:05:20.020Z,13.07
2019-02-17T18:07:46.717Z,12.83
2019-02-17T18:10:15.632Z,13.77
2019-02-17T18:12:42.249Z,11.97
2019-02-17T18:15:13.435Z,9.87
2019-02-17T18:17:40.638Z,10.67
2019-02-17T18:20:10.009Z,13.63
2019-02-17T18:22:37.755Z,18.30
2019-02-17T18:25:07.279Z,13.60
2019-02-17T18:27:33.805Z,11.80
2019-02-17T18:30:00.344Z,14.57
2019-02-17T18:32:27.099Z,13.80
2019-02-17T18:34:53.639Z,12.97
2019-02-17T18:37:20.177Z,14.77
2019-02-17T18:39:47.001Z,19.83
2019-02-17T18:42:13.691Z,18.30
2019-02-17T18:44:40.399Z,19.80
2019-02-17T18:47:06.909Z,22.87
2019-02-17T18:49:33.419Z,19.73
2019-02-17T18:51:59.869Z,19.70
2019-02-17T18:54:27.627Z,17.20
2019-02-17T18:56:54.173Z,17.10
2019-02-17T18:59:21.014Z,14.80
2019-02-17T19:01:48.624Z,12.30
2019-02-17T19:04:15.138Z,11.57
2019-02-17T19:06:41.688Z,11.43
2019-02-17T19:09:08.456Z,10.63
2019-02-17T19:11:35.092Z,11.30
2019-02-17T19:14:01.780Z,10.83
2019-02-17T19:16:28.604Z,9.97
2019-02-17T19:18:55.036Z,9.13
2019-02-17T19:21:21.587Z,8.30
2019-02-17T19:23:48.280Z,9.00
2019-02-17T19:26:15.119Z,10.23
2019-02-17T19:28:41.593Z,10.03
2019-02-17T19:31:09.396Z,8.13
2019-02-17T19:33:35.922Z,9.60
2019-02-17T19:36:02.572Z,6.73
2019-02-17T19:38:29.189Z,9.67
2019-02-17T19:40:55.741Z,10.40
2019-02-17T19:43:22.253Z,11.73
2019-02-17T19:45:48.880Z,8.83
2019-02-17T19:48:15.317Z,8.27
2019-02-17T19:50:41.745Z,9.77
2019-02-17T19:53:08.412Z,13.03
2019-02-17T19:55:35.063Z,9.43
2019-02-17T19:58:01.497Z,10.60
2019-02-17T20:00:28.401Z,10.90
2019-02-17T20:03:02.538Z,12.90
2019-02-17T20:05:31.055Z,11.70
2019-02-17T20:07:57.593Z,11.43
2019-02-17T20:10:24.322Z,11.23
2019-02-17T20:12:51.132Z,10.27
2019-02-17T20:15:17.635Z,12.17
2019-02-17T20:17:44.220Z,10.23
2019-02-17T20:20:11.020Z,7.50
2019-02-17T20:22:37.560Z,8.17
2019-02-17T20:25:04.983Z,8.17
2019-02-17T20:27:31.632Z,8.17
2019-02-17T20:29:58.144Z,10.10
2019-02-17T20:32:24.609Z,13.17
2019-02-17T20:34:51.108Z,11.07
2019-02-17T20:37:17.645Z,8.30
2019-02-17T20:39:45.440Z,9.37
2019-02-17T20:42:11.875Z,9.53
2019-02-17T20:44:38.386Z,9.43
2019-02-17T20:47:04.946Z,9.30
2019-02-17T20:49:31.814Z,14.17
2019-02-17T20:51:58.454Z,11.80
2019-02-17T20:54:24.991Z,14.73
2019-02-17T20:56:51.512Z,14.63
2019-02-17T20:59:19.176Z,13.87
2019-02-17T21:01:46.869Z,16.40
2019-02-17T21:04:13.704Z,17.73
2019-02-17T21:06:40.301Z,15.10
2019-02-17T21:09:07.048Z,15.63
2019-02-17T21:11:35.375Z,13.87
2019-02-17T21:14:02.044Z,15.27
2019-02-17T21:16:28.860Z,12.70
2019-02-17T21:18:55.409Z,11.80
2019-02-17T21:21:23.236Z,12.57
2019-02-17T21:23:49.667Z,11.60
2019-02-17T21:26:16.092Z,13.07
2019-02-17T21:28:42.642Z,9.10
2019-02-17T21:31:09.424Z,10.13
2019-02-17T21:33:36.853Z,9.57
2019-02-17T21:36:04.397Z,8.37
2019-02-17T21:38:31.185Z,7.93
2019-02-17T21:41:08.730Z,8.63
2019-02-17T21:43:27.047Z,7.30
2019-02-17T21:45:53.573Z,10.07
2019-02-17T21:48:21.144Z,8.97
2019-02-17T21:50:47.752Z,8.27
2019-02-17T21:53:20.444Z,6.47
2019-02-17T21:55:42.541Z,5.73
2019-02-17T21:58:09.076Z,8.77
2019-02-17T22:00:35.539Z,11.33
2019-02-17T22:03:02.341Z,9.13
2019-02-17T22:05:29.116Z,11.77
2019-02-17T22:07:55.552Z,9.63
2019-02-17T22:10:23.889Z,9.43
2019-02-17T22:12:51.432Z,9.47
2019-02-17T22:15:20.959Z,9.70
2019-02-17T22:17:48.709Z,10.30
2019-02-17T22:20:15.241Z,9.60
2019-02-17T22:22:41.660Z,9.60
2019-02-17T22:25:09.008Z,8.13
2019-02-17T22:27:35.530Z,12.70
2019-02-17T22:30:06.872Z,11.77
2019-02-17T22:32:33.378Z,10.73
2019-02-17T22:35:00.158Z,9.87
2019-02-17T22:37:26.796Z,9.53
2019-02-17T22:39:53.327Z,9.40
2019-02-17T22:42:20.132Z,13.17
2019-02-17T22:44:46.648Z,8.03
2019-02-17T22:47:13.564Z,7.50
2019-02-17T22:49:40.216Z,6.60
2019-02-17T22:52:08.028Z,6.20
2019-02-17T22:54:34.856Z,8.50
2019-02-17T22:57:01.357Z,10.30
2019-02-17T22:59:28.104Z,9.43
2019-02-17T23:01:54.744Z,8.47
2019-02-17T23:04:22.487Z,10.67
2019-02-17T23:06:54.116Z,7.13
2019-02-17T23:09:17.893Z,7.67
2019-02-17T23:11:44.737Z,7.97
2019-02-17T23:14:11.391Z,7.27
2019-02-17T23:16:37.891Z,8.17
2019-02-17T23:19:04.652Z,7.43
2019-02-17T23:21:31.902Z,6.50
2019-02-17T23:23:58.409Z,7.63
2019-02-17T23:26:24.934Z,7.10
2019-02-17T23:28:51.505Z,5.50
2019-02-17T23:31:18.027Z,4.90
2019-02-17T23:33:44.908Z,14.00
2019-02-17T23:36:11.709Z,7.67
2019-02-17T23:38:38.165Z,12.10
2019-02-17T23:41:04.739Z,8.10
2019-02-17T23:43:31.292Z,6.80
2019-02-17T23:45:57.839Z,9.10
2019-02-17T23:48:24.295Z,7.83
2019-02-17T23:50:50.849Z,7.07
2019-02-17T23:53:17.417Z,7.87
2019-02-17T23:55:43.940Z,6.87
2019-02-17T23:58:10.494Z,7.53
